createdAt,value
2023-05-14T00:00:57.789Z,15.54
2023-05-14T00:01:58.758Z,15.40
2023-05-14T00:02:59.739Z,15.33
2023-05-14T00:04:00.411Z,15.30
2023-05-14T00:05:00.805Z,15.32
2023-05-14T00:06:01.719Z,15.44
2023-05-14T00:07:02.579Z,15.52
2023-05-14T00:08:03.489Z,15.65
2023-05-14T00:09:04.323Z,15.65
2023-05-14T00:10:05.205Z,15.63
2023-05-14T00:11:06.093Z,15.58
2023-05-14T00:12:06.989Z,15.50
2023-05-14T00:13:07.877Z,15.40
2023-05-14T00:14:08.770Z,15.11
2023-05-14T00:15:09.632Z,14.78
2023-05-14T00:16:10.638Z,14.55
2023-05-14T00:17:11.041Z,14.41
2023-05-14T00:18:11.938Z,14.30
2023-05-14T00:19:12.841Z,14.23
2023-05-14T00:20:13.693Z,14.21
2023-05-14T00:21:14.618Z,14.12
2023-05-14T00:22:15.476Z,14.38
2023-05-14T00:23:16.352Z,14.86
2023-05-14T00:24:17.261Z,15.15
2023-05-14T00:25:18.152Z,15.50
2023-05-14T00:26:19.043Z,15.54
2023-05-14T00:27:19.916Z,15.50
2023-05-14T00:28:20.799Z,15.30
2023-05-14T00:29:21.680Z,15.10
2023-05-14T00:30:22.899Z,14.87
2023-05-14T00:31:23.463Z,14.74
2023-05-14T00:32:24.316Z,14.59
2023-05-14T00:33:25.183Z,14.49
2023-05-14T00:34:26.980Z,14.44
2023-05-14T00:35:26.847Z,14.41
2023-05-14T00:36:27.762Z,14.37
2023-05-14T00:37:28.626Z,14.33
2023-05-14T00:38:29.520Z,14.45
2023-05-14T00:39:30.379Z,14.83
2023-05-14T00:40:31.246Z,15.22
2023-05-14T00:41:32.138Z,15.65
2023-05-14T00:42:33.027Z,15.62
2023-05-14T00:43:33.882Z,15.48
2023-05-14T00:44:34.742Z,15.17
2023-05-14T00:45:35.608Z,14.95
2023-05-14T00:46:36.568Z,14.77
2023-05-14T00:47:37.552Z,14.53
2023-05-14T00:48:38.438Z,14.44
2023-05-14T00:49:39.299Z,14.38
2023-05-14T00:50:40.177Z,14.30
2023-05-14T00:51:40.781Z,14.36
2023-05-14T00:52:41.639Z,14.34
2023-05-14T00:53:42.519Z,14.58
2023-05-14T00:54:43.400Z,14.95
2023-05-14T00:55:44.284Z,15.19
2023-05-14T00:56:45.186Z,15.36
2023-05-14T00:57:46.057Z,15.52
2023-05-14T00:58:46.933Z,15.45
2023-05-14T00:59:47.818Z,15.43
2023-05-14T01:00:48.800Z,15.36
2023-05-14T01:01:49.696Z,15.33
2023-05-14T01:02:50.654Z,15.20
2023-05-14T01:03:51.244Z,15.10
2023-05-14T01:04:51.633Z,14.95
2023-05-14T01:05:52.533Z,14.89
2023-05-14T01:06:53.422Z,14.83
2023-05-14T01:07:54.300Z,14.73
2023-05-14T01:08:55.170Z,14.67
2023-05-14T01:09:56.048Z,14.63
2023-05-14T01:10:56.916Z,14.58
2023-05-14T01:11:59.243Z,14.45
2023-05-14T01:12:58.606Z,14.44
2023-05-14T01:13:59.496Z,14.40
2023-05-14T01:15:00.350Z,14.44
2023-05-14T01:16:01.236Z,14.53
2023-05-14T01:17:02.128Z,14.58
2023-05-14T01:18:03.041Z,14.59
2023-05-14T01:19:03.987Z,14.67
2023-05-14T01:20:04.917Z,14.73
2023-05-14T01:21:05.751Z,14.70
2023-05-14T01:22:06.681Z,14.70
2023-05-14T01:23:07.540Z,14.66
2023-05-14T01:24:08.451Z,14.46
2023-05-14T01:25:09.325Z,14.37
2023-05-14T01:26:10.231Z,14.38
2023-05-14T01:27:11.117Z,14.38
2023-05-14T01:28:11.994Z,14.37
2023-05-14T01:29:12.873Z,14.31
2023-05-14T01:30:13.756Z,14.28
2023-05-14T01:31:14.677Z,14.26
2023-05-14T01:32:15.562Z,14.27
2023-05-14T01:33:16.442Z,14.26
2023-05-14T01:34:17.316Z,14.09
2023-05-14T01:35:18.211Z,14.11
2023-05-14T01:36:19.075Z,14.11
2023-05-14T01:37:19.995Z,13.93
2023-05-14T01:38:20.872Z,13.67
2023-05-14T01:39:21.742Z,13.61
2023-05-14T01:40:22.796Z,13.51
2023-05-14T01:41:23.284Z,13.47
2023-05-14T01:42:24.244Z,13.49
2023-05-14T01:43:25.144Z,13.54
2023-05-14T01:44:26.031Z,13.58
2023-05-14T01:45:26.928Z,13.63
2023-05-14T01:46:27.856Z,13.64
2023-05-14T01:47:28.804Z,13.65
2023-05-14T01:48:29.663Z,13.64
2023-05-14T01:49:30.551Z,13.57
2023-05-14T01:50:31.435Z,13.60
2023-05-14T01:51:32.324Z,13.53
2023-05-14T01:52:33.232Z,13.53
2023-05-14T01:53:34.118Z,13.47
2023-05-14T01:54:34.988Z,13.42
2023-05-14T01:55:35.854Z,13.36
2023-05-14T01:56:36.759Z,13.19
2023-05-14T01:57:37.685Z,13.19
2023-05-14T01:58:38.553Z,13.06
2023-05-14T01:59:39.450Z,12.93
2023-05-14T02:00:40.316Z,12.88
2023-05-14T02:01:41.420Z,12.88
2023-05-14T02:02:41.849Z,12.90
2023-05-14T02:03:42.808Z,12.88
2023-05-14T02:04:43.655Z,12.93
2023-05-14T02:05:44.553Z,13.14
2023-05-14T02:06:45.421Z,13.35
2023-05-14T02:07:46.354Z,13.54
2023-05-14T02:08:47.243Z,13.67
2023-05-14T02:09:48.116Z,13.73
2023-05-14T02:10:48.983Z,13.79
2023-05-14T02:11:49.859Z,13.83
2023-05-14T02:12:50.779Z,13.85
2023-05-14T02:13:51.663Z,13.76
2023-05-14T02:14:52.532Z,13.67
2023-05-14T02:15:53.456Z,13.64
2023-05-14T02:16:54.326Z,13.57
2023-05-14T02:17:55.239Z,13.53
2023-05-14T02:18:56.137Z,13.43
2023-05-14T02:19:56.977Z,13.29
2023-05-14T02:20:57.880Z,13.13
2023-05-14T02:21:58.864Z,13.02
2023-05-14T02:22:59.755Z,12.98
2023-05-14T02:24:00.604Z,12.83
2023-05-14T02:25:01.513Z,12.81
2023-05-14T02:26:02.355Z,12.83
2023-05-14T02:27:03.272Z,12.80
2023-05-14T02:28:04.150Z,12.73
2023-05-14T02:29:05.031Z,12.63
2023-05-14T02:30:05.910Z,12.50
2023-05-14T02:31:06.843Z,12.41
2023-05-14T02:32:07.741Z,12.38
2023-05-14T02:33:08.724Z,12.41
2023-05-14T02:34:09.182Z,12.41
2023-05-14T02:35:10.074Z,12.41
2023-05-14T02:36:10.913Z,12.43
2023-05-14T02:37:11.794Z,12.43
2023-05-14T02:38:12.724Z,12.44
2023-05-14T02:39:13.584Z,12.62
2023-05-14T02:40:14.461Z,12.83
2023-05-14T02:41:15.346Z,13.21
2023-05-14T02:42:16.272Z,13.64
2023-05-14T02:43:17.159Z,14.16
2023-05-14T02:44:18.050Z,14.46
2023-05-14T02:45:18.931Z,14.51
2023-05-14T02:46:19.943Z,14.61
2023-05-14T02:47:20.830Z,14.63
2023-05-14T02:48:21.722Z,14.34
2023-05-14T02:49:22.590Z,14.18
2023-05-14T02:50:23.860Z,14.15
2023-05-14T02:51:24.365Z,14.04
2023-05-14T02:52:25.256Z,13.97
2023-05-14T02:53:26.208Z,13.97
2023-05-14T02:54:27.086Z,13.93
2023-05-14T02:55:27.968Z,13.86
2023-05-14T02:56:28.864Z,13.73
2023-05-14T02:57:29.755Z,13.58
2023-05-14T02:58:30.676Z,13.58
2023-05-14T02:59:31.588Z,13.63
2023-05-14T03:00:32.418Z,13.72
2023-05-14T03:01:33.133Z,13.79
2023-05-14T03:02:33.973Z,13.85
2023-05-14T03:03:34.673Z,13.86
2023-05-14T03:04:35.457Z,13.83
2023-05-14T03:05:36.381Z,13.80
2023-05-14T03:06:37.262Z,13.76
2023-05-14T03:07:38.148Z,13.75
2023-05-14T03:08:39.165Z,13.72
2023-05-14T03:09:40.013Z,13.67
2023-05-14T03:10:40.925Z,13.61
2023-05-14T03:11:41.816Z,13.53
2023-05-14T03:12:42.710Z,13.49
2023-05-14T03:13:44.024Z,13.40
2023-05-14T03:14:44.415Z,13.19
2023-05-14T03:15:45.282Z,13.02
2023-05-14T03:16:45.867Z,13.08
2023-05-14T03:17:46.781Z,13.08
2023-05-14T03:18:47.720Z,13.02
2023-05-14T03:19:48.585Z,12.96
2023-05-14T03:20:49.464Z,12.98
2023-05-14T03:21:50.350Z,13.01
2023-05-14T03:22:51.214Z,12.91
2023-05-14T03:23:52.134Z,12.90
2023-05-14T03:24:53.008Z,12.90
2023-05-14T03:25:53.891Z,12.93
2023-05-14T03:26:54.759Z,12.90
2023-05-14T03:27:55.645Z,12.87
2023-05-14T03:28:56.551Z,12.90
2023-05-14T03:29:57.467Z,12.91
2023-05-14T03:30:58.443Z,12.91
2023-05-14T03:31:59.276Z,12.86
2023-05-14T03:33:00.267Z,12.88
2023-05-14T03:34:01.169Z,12.95
2023-05-14T03:35:02.050Z,13.01
2023-05-14T03:36:02.903Z,13.08
2023-05-14T03:37:03.778Z,13.09
2023-05-14T03:38:04.643Z,13.13
2023-05-14T03:39:05.572Z,13.16
2023-05-14T03:40:06.436Z,13.13
2023-05-14T03:41:07.335Z,13.04
2023-05-14T03:42:08.221Z,12.96
2023-05-14T03:43:09.088Z,12.93
2023-05-14T03:44:09.993Z,12.90
2023-05-14T03:45:10.879Z,12.91
2023-05-14T03:46:11.751Z,12.87
2023-05-14T03:47:12.614Z,12.80
2023-05-14T03:48:13.599Z,12.69
2023-05-14T03:49:14.484Z,12.58
2023-05-14T03:50:15.387Z,12.50
2023-05-14T03:51:16.228Z,12.51
2023-05-14T03:52:17.106Z,12.54
2023-05-14T03:53:17.984Z,12.59
2023-05-14T03:54:18.891Z,12.68
2023-05-14T03:55:19.736Z,12.76
2023-05-14T03:56:20.610Z,12.91
2023-05-14T03:57:21.521Z,13.02
2023-05-14T03:58:22.382Z,13.11
2023-05-14T03:59:23.318Z,13.13
2023-05-14T04:00:24.696Z,13.13
2023-05-14T04:01:24.735Z,13.13
2023-05-14T04:02:25.662Z,13.14
2023-05-14T04:03:26.572Z,13.16
2023-05-14T04:04:27.528Z,13.14
2023-05-14T04:05:28.388Z,13.05
2023-05-14T04:06:29.247Z,13.01
2023-05-14T04:07:30.125Z,12.96
2023-05-14T04:08:31.036Z,12.91
2023-05-14T04:09:31.926Z,12.88
2023-05-14T04:10:32.794Z,12.88
2023-05-14T04:11:33.671Z,12.81
2023-05-14T04:12:34.552Z,12.77
2023-05-14T04:13:35.472Z,12.76
2023-05-14T04:14:36.334Z,12.87
2023-05-14T04:15:37.198Z,12.98
2023-05-14T04:16:38.135Z,13.06
2023-05-14T04:17:38.979Z,13.24
2023-05-14T04:18:39.877Z,13.30
2023-05-14T04:19:40.732Z,13.38
2023-05-14T04:20:41.623Z,13.40
2023-05-14T04:21:42.507Z,13.39
2023-05-14T04:22:43.392Z,13.39
2023-05-14T04:23:44.276Z,13.36
2023-05-14T04:24:45.196Z,13.38
2023-05-14T04:25:46.057Z,13.43
2023-05-14T04:26:46.947Z,13.43
2023-05-14T04:27:47.809Z,13.39
2023-05-14T04:28:48.694Z,13.42
2023-05-14T04:29:49.577Z,13.45
2023-05-14T04:30:50.436Z,13.47
2023-05-14T04:31:51.385Z,13.47
2023-05-14T04:32:51.944Z,13.47
2023-05-14T04:33:52.895Z,13.47
2023-05-14T04:34:53.758Z,13.46
2023-05-14T04:35:54.647Z,13.46
2023-05-14T04:36:55.522Z,13.46
2023-05-14T04:37:56.401Z,13.54
2023-05-14T04:38:57.274Z,13.61
2023-05-14T04:39:58.175Z,13.71
2023-05-14T04:40:59.033Z,13.76
2023-05-14T04:41:59.903Z,13.79
2023-05-14T04:43:00.783Z,13.80
2023-05-14T04:44:01.653Z,13.80
2023-05-14T04:45:02.545Z,13.79
2023-05-14T04:46:03.458Z,13.78
2023-05-14T04:47:04.298Z,13.71
2023-05-14T04:48:05.213Z,13.73
2023-05-14T04:49:06.093Z,13.75
2023-05-14T04:50:06.974Z,13.78
2023-05-14T04:51:07.862Z,13.76
2023-05-14T04:52:08.745Z,13.75
2023-05-14T04:53:09.596Z,13.76
2023-05-14T04:54:10.488Z,13.73
2023-05-14T04:55:11.409Z,13.71
2023-05-14T04:56:12.247Z,13.65
2023-05-14T04:57:13.149Z,13.67
2023-05-14T04:58:14.036Z,13.64
2023-05-14T04:59:14.574Z,13.67
2023-05-14T05:00:15.462Z,13.75
2023-05-14T05:01:16.433Z,13.83
2023-05-14T05:02:17.277Z,13.88
2023-05-14T05:03:18.216Z,13.91
2023-05-14T05:04:19.195Z,13.91
2023-05-14T05:05:20.099Z,13.88
2023-05-14T05:06:20.979Z,13.83
2023-05-14T05:07:21.901Z,13.75
2023-05-14T05:08:22.782Z,13.71
2023-05-14T05:09:23.656Z,13.68
2023-05-14T05:10:24.950Z,13.67
2023-05-14T05:11:25.493Z,13.64
2023-05-14T05:12:26.378Z,13.58
2023-05-14T05:13:27.243Z,13.54
2023-05-14T05:14:28.150Z,13.49
2023-05-14T05:15:29.035Z,13.49
2023-05-14T05:16:30.082Z,13.47
2023-05-14T05:17:30.608Z,13.47
2023-05-14T05:18:31.504Z,13.57
2023-05-14T05:19:42.319Z,13.63
2023-05-14T05:20:34.178Z,13.67
2023-05-14T05:21:34.056Z,13.67
2023-05-14T05:22:34.911Z,13.73
2023-05-14T05:23:35.794Z,13.73
2023-05-14T05:24:36.645Z,13.73
2023-05-14T05:25:37.547Z,13.71
2023-05-14T05:26:38.399Z,13.71
2023-05-14T05:27:39.284Z,13.72
2023-05-14T05:28:40.161Z,13.71
2023-05-14T05:29:41.054Z,13.73
2023-05-14T05:30:41.948Z,13.72
2023-05-14T05:31:42.914Z,13.73
2023-05-14T05:32:43.853Z,13.73
2023-05-14T05:33:44.724Z,13.65
2023-05-14T05:34:45.603Z,13.65
2023-05-14T05:35:46.514Z,13.67
2023-05-14T05:36:47.385Z,13.68
2023-05-14T05:37:48.260Z,13.79
2023-05-14T05:38:49.158Z,13.90
2023-05-14T05:39:50.030Z,14.03
2023-05-14T05:40:51.272Z,14.15
2023-05-14T05:41:51.638Z,14.21
2023-05-14T05:42:52.567Z,14.26
2023-05-14T05:43:53.418Z,14.26
2023-05-14T05:44:54.282Z,14.23
2023-05-14T05:45:55.192Z,14.23
2023-05-14T05:46:56.162Z,14.23
2023-05-14T05:47:56.630Z,14.27
2023-05-14T05:48:57.525Z,14.27
2023-05-14T05:49:58.392Z,14.31
2023-05-14T05:50:59.325Z,14.31
2023-05-14T05:52:00.206Z,14.33
2023-05-14T05:53:01.091Z,14.36
2023-05-14T05:54:02.002Z,14.38
2023-05-14T05:55:02.840Z,14.38
2023-05-14T05:56:04.195Z,14.41
2023-05-14T05:57:04.557Z,14.46
2023-05-14T05:58:05.438Z,14.46
2023-05-14T05:59:06.304Z,14.52
2023-05-14T06:00:07.236Z,14.67
2023-05-14T06:01:08.185Z,14.85
2023-05-14T06:02:09.127Z,14.96
2023-05-14T06:03:10.039Z,15.04
2023-05-14T06:04:10.941Z,15.07
2023-05-14T06:05:11.839Z,15.11
2023-05-14T06:06:12.753Z,15.10
2023-05-14T06:07:13.620Z,15.15
2023-05-14T06:08:14.521Z,14.97
2023-05-14T06:09:15.418Z,14.97
2023-05-14T06:10:16.312Z,14.95
2023-05-14T06:11:17.251Z,14.95
2023-05-14T06:12:18.086Z,15.01
2023-05-14T06:13:18.968Z,15.11
2023-05-14T06:14:19.853Z,15.12
2023-05-14T06:15:20.746Z,15.15
2023-05-14T06:16:21.666Z,15.19
2023-05-14T06:17:22.569Z,15.22
2023-05-14T06:18:23.447Z,15.25
2023-05-14T06:19:24.318Z,15.29
2023-05-14T06:20:25.442Z,15.30
2023-05-14T06:21:26.018Z,15.33
2023-05-14T06:22:26.902Z,15.38
2023-05-14T06:23:27.772Z,15.48
2023-05-14T06:24:28.639Z,15.70
2023-05-14T06:25:29.557Z,15.95
2023-05-14T06:26:30.439Z,16.26
2023-05-14T06:27:31.312Z,16.47
2023-05-14T06:28:32.190Z,16.58
2023-05-14T06:29:33.157Z,16.67
2023-05-14T06:30:34.016Z,16.65
2023-05-14T06:31:34.948Z,16.67
2023-05-14T06:32:35.842Z,16.65
2023-05-14T06:33:36.713Z,16.62
2023-05-14T06:34:37.595Z,16.61
2023-05-14T06:35:38.484Z,16.51
2023-05-14T06:36:39.384Z,16.49
2023-05-14T06:37:40.252Z,16.47
2023-05-14T06:38:41.135Z,16.49
2023-05-14T06:39:42.022Z,16.52
2023-05-14T06:40:42.909Z,16.55
2023-05-14T06:41:43.818Z,16.55
2023-05-14T06:42:44.691Z,16.55
2023-05-14T06:43:45.576Z,16.59
2023-05-14T06:44:46.453Z,16.62
2023-05-14T06:45:47.284Z,16.65
2023-05-14T06:46:48.281Z,16.69
2023-05-14T06:47:48.686Z,16.83
2023-05-14T06:48:49.612Z,17.22
2023-05-14T06:49:50.452Z,17.52
2023-05-14T06:50:51.328Z,17.75
2023-05-14T06:51:52.272Z,17.90
2023-05-14T06:52:53.121Z,17.96
2023-05-14T06:53:54.007Z,17.94
2023-05-14T06:54:54.898Z,17.93
2023-05-14T06:55:55.750Z,17.87
2023-05-14T06:56:56.688Z,17.79
2023-05-14T06:57:57.547Z,17.76
2023-05-14T06:58:58.445Z,17.69
2023-05-14T06:59:59.348Z,17.57
2023-05-14T07:01:00.275Z,17.57
2023-05-14T07:02:01.191Z,17.56
2023-05-14T07:03:02.132Z,17.52
2023-05-14T07:04:03.025Z,17.54
2023-05-14T07:05:03.864Z,17.52
2023-05-14T07:06:04.773Z,17.52
2023-05-14T07:07:05.659Z,17.62
2023-05-14T07:08:06.532Z,17.94
2023-05-14T07:09:07.419Z,18.28
2023-05-14T07:10:08.292Z,18.68
2023-05-14T07:11:09.163Z,19.07
2023-05-14T07:12:10.071Z,19.22
2023-05-14T07:13:10.975Z,19.20
2023-05-14T07:14:11.824Z,19.19
2023-05-14T07:15:12.700Z,19.13
2023-05-14T07:16:13.591Z,19.04
2023-05-14T07:17:14.505Z,18.91
2023-05-14T07:18:15.403Z,18.78
2023-05-14T07:19:16.321Z,18.76
2023-05-14T07:20:17.247Z,18.60
2023-05-14T07:21:18.146Z,18.39
2023-05-14T07:22:19.065Z,18.36
2023-05-14T07:23:20.180Z,18.39
2023-05-14T07:24:20.562Z,18.41
2023-05-14T07:25:21.425Z,18.38
2023-05-14T07:26:22.314Z,18.39
2023-05-14T07:27:23.240Z,18.41
2023-05-14T07:28:24.096Z,18.38
2023-05-14T07:29:24.997Z,18.33
2023-05-14T07:30:26.155Z,18.36
2023-05-14T07:31:26.801Z,18.41
2023-05-14T07:32:27.690Z,18.38
2023-05-14T07:33:28.542Z,18.27
2023-05-14T07:34:29.423Z,18.21
2023-05-14T07:35:30.304Z,18.26
2023-05-14T07:36:31.183Z,18.27
2023-05-14T07:37:32.095Z,18.33
2023-05-14T07:38:32.994Z,18.58
2023-05-14T07:39:33.861Z,18.96
2023-05-14T07:40:34.738Z,19.31
2023-05-14T07:41:35.614Z,19.60
2023-05-14T07:42:37.445Z,19.82
2023-05-14T07:43:36.990Z,19.77
2023-05-14T07:44:37.867Z,19.72
2023-05-14T07:45:38.750Z,19.70
2023-05-14T07:46:39.660Z,19.60
2023-05-14T07:47:40.704Z,19.56
2023-05-14T07:48:41.249Z,19.45
2023-05-14T07:49:42.149Z,19.44
2023-05-14T07:50:43.044Z,19.31
2023-05-14T07:51:43.970Z,19.24
2023-05-14T07:52:44.841Z,19.17
2023-05-14T07:53:45.733Z,19.12
2023-05-14T07:54:47.981Z,19.07
2023-05-14T07:55:47.207Z,19.07
2023-05-14T07:56:48.081Z,19.00
2023-05-14T07:57:48.993Z,19.00
2023-05-14T07:58:49.860Z,18.97
2023-05-14T07:59:50.762Z,19.01
2023-05-14T08:00:51.634Z,19.27
2023-05-14T08:01:52.533Z,19.67
2023-05-14T08:02:53.481Z,20.09
2023-05-14T08:03:54.072Z,20.56
2023-05-14T08:04:54.504Z,21.00
2023-05-14T08:05:55.424Z,21.41
2023-05-14T08:06:57.118Z,21.73
2023-05-14T08:07:56.999Z,21.88
2023-05-14T08:08:57.875Z,21.71
2023-05-14T08:09:58.784Z,21.28
2023-05-14T08:10:59.751Z,20.93
2023-05-14T08:12:00.166Z,20.82
2023-05-14T08:13:01.108Z,20.65
2023-05-14T08:14:01.992Z,20.55
2023-05-14T08:15:02.890Z,20.48
2023-05-14T08:16:03.779Z,20.37
2023-05-14T08:17:04.706Z,20.36
2023-05-14T08:18:05.680Z,20.34
2023-05-14T08:19:06.611Z,20.27
2023-05-14T08:20:07.543Z,20.15
2023-05-14T08:21:08.435Z,20.08
2023-05-14T08:22:09.332Z,19.97
2023-05-14T08:23:10.237Z,19.89
2023-05-14T08:24:11.083Z,19.87
2023-05-14T08:25:11.972Z,19.82
2023-05-14T08:26:12.830Z,19.79
2023-05-14T08:27:13.722Z,19.79
2023-05-14T08:28:14.637Z,19.79
2023-05-14T08:29:16.468Z,19.92
2023-05-14T08:30:16.221Z,20.27
2023-05-14T08:31:17.182Z,20.65
2023-05-14T08:32:23.417Z,21.07
2023-05-14T08:33:19.798Z,21.45
2023-05-14T08:34:19.677Z,21.62
2023-05-14T08:35:20.569Z,21.63
2023-05-14T08:36:21.461Z,21.48
2023-05-14T08:37:22.389Z,21.35
2023-05-14T08:38:23.257Z,21.08
2023-05-14T08:39:24.144Z,20.93
2023-05-14T08:40:25.365Z,20.85
2023-05-14T08:41:25.876Z,20.71
2023-05-14T08:42:26.790Z,20.64
2023-05-14T08:43:27.733Z,20.61
2023-05-14T08:44:28.574Z,20.44
2023-05-14T08:45:29.463Z,20.34
2023-05-14T08:46:30.335Z,20.27
2023-05-14T08:47:31.320Z,20.18
2023-05-14T08:48:31.902Z,20.15
2023-05-14T08:49:32.434Z,20.11
2023-05-14T08:50:33.295Z,20.11
2023-05-14T08:51:34.186Z,20.11
2023-05-14T08:52:35.061Z,20.07
2023-05-14T08:53:35.959Z,20.05
2023-05-14T08:54:36.840Z,20.04
2023-05-14T08:55:37.738Z,20.15
2023-05-14T08:56:38.616Z,20.49
2023-05-14T08:57:39.517Z,20.95
2023-05-14T08:58:40.464Z,21.44
2023-05-14T08:59:41.287Z,21.78
2023-05-14T09:00:42.165Z,22.07
2023-05-14T09:01:43.121Z,22.12
2023-05-14T09:02:44.020Z,22.12
2023-05-14T09:03:44.978Z,21.94
2023-05-14T09:04:45.835Z,21.78
2023-05-14T09:05:46.717Z,21.63
2023-05-14T09:06:47.595Z,21.47
2023-05-14T09:07:48.480Z,21.35
2023-05-14T09:08:49.367Z,21.30
2023-05-14T09:09:50.239Z,21.26
2023-05-14T09:10:51.148Z,21.18
2023-05-14T09:11:52.031Z,21.07
2023-05-14T09:12:52.882Z,20.92
2023-05-14T09:13:53.812Z,20.86
2023-05-14T09:14:54.703Z,20.82
2023-05-14T09:15:55.638Z,20.79
2023-05-14T09:16:56.512Z,20.75
2023-05-14T09:17:57.380Z,20.74
2023-05-14T09:18:58.273Z,20.73
2023-05-14T09:19:59.164Z,20.70
2023-05-14T09:21:00.025Z,20.67
2023-05-14T09:22:00.929Z,20.70
2023-05-14T09:23:01.800Z,20.67
2023-05-14T09:24:02.701Z,20.63
2023-05-14T09:25:03.618Z,20.82
2023-05-14T09:26:04.486Z,21.32
2023-05-14T09:27:05.363Z,21.85
2023-05-14T09:28:07.164Z,22.36
2023-05-14T09:29:07.076Z,22.81
2023-05-14T09:30:07.961Z,23.06
2023-05-14T09:31:08.851Z,23.07
2023-05-14T09:32:09.731Z,23.01
2023-05-14T09:33:10.715Z,22.89
2023-05-14T09:34:11.109Z,22.74
2023-05-14T09:35:11.995Z,22.56
2023-05-14T09:36:12.872Z,22.38
2023-05-14T09:37:13.750Z,22.25
2023-05-14T09:38:14.636Z,22.19
2023-05-14T09:39:15.543Z,22.06
2023-05-14T09:40:16.422Z,21.94
2023-05-14T09:41:17.335Z,21.85
2023-05-14T09:42:18.203Z,21.75
2023-05-14T09:43:19.101Z,21.69
2023-05-14T09:44:20.005Z,21.62
2023-05-14T09:45:20.870Z,21.69
2023-05-14T09:46:21.776Z,21.94
2023-05-14T09:47:22.725Z,22.25
2023-05-14T09:48:23.614Z,22.67
2023-05-14T09:49:24.504Z,23.11
2023-05-14T09:50:25.713Z,23.36
2023-05-14T09:51:26.274Z,23.29
2023-05-14T09:52:27.155Z,23.15
2023-05-14T09:53:28.072Z,22.98
2023-05-14T09:54:28.981Z,22.91
2023-05-14T09:55:29.863Z,22.68
2023-05-14T09:56:30.749Z,22.59
2023-05-14T09:57:31.637Z,22.52
2023-05-14T09:58:32.511Z,22.44
2023-05-14T09:59:33.414Z,22.33
2023-05-14T10:00:34.280Z,22.27
2023-05-14T10:01:35.237Z,22.23
2023-05-14T10:02:35.675Z,22.19
2023-05-14T10:03:36.555Z,22.12
2023-05-14T10:04:37.470Z,22.04
2023-05-14T10:05:38.354Z,21.96
2023-05-14T10:06:39.281Z,21.82
2023-05-14T10:07:40.137Z,21.85
2023-05-14T10:08:41.045Z,21.91
2023-05-14T10:09:41.903Z,21.91
2023-05-14T10:10:42.798Z,21.82
2023-05-14T10:11:43.695Z,21.82
2023-05-14T10:12:44.554Z,21.80
2023-05-14T10:13:45.424Z,21.67
2023-05-14T10:14:46.340Z,21.67
2023-05-14T10:15:47.197Z,21.77
2023-05-14T10:16:48.092Z,22.03
2023-05-14T10:17:49.040Z,22.41
2023-05-14T10:18:49.923Z,22.78
2023-05-14T10:19:50.859Z,23.07
2023-05-14T10:20:51.751Z,23.37
2023-05-14T10:21:52.636Z,23.44
2023-05-14T10:22:53.510Z,23.33
2023-05-14T10:23:54.396Z,22.99
2023-05-14T10:24:55.290Z,22.81
2023-05-14T10:25:56.182Z,22.67
2023-05-14T10:26:57.040Z,22.61
2023-05-14T10:27:57.946Z,22.48
2023-05-14T10:28:58.822Z,22.43
2023-05-14T10:29:59.757Z,22.38
2023-05-14T10:31:00.865Z,22.28
2023-05-14T10:32:01.348Z,22.22
2023-05-14T10:33:02.281Z,22.06
2023-05-14T10:34:03.177Z,22.00
2023-05-14T10:35:04.080Z,21.75
2023-05-14T10:36:04.968Z,21.67
2023-05-14T10:37:05.850Z,21.73
2023-05-14T10:38:06.752Z,21.71
2023-05-14T10:39:07.631Z,21.67
2023-05-14T10:40:08.508Z,21.77
2023-05-14T10:41:09.426Z,21.93
2023-05-14T10:42:10.294Z,22.22
2023-05-14T10:43:11.214Z,22.71
2023-05-14T10:44:12.064Z,23.21
2023-05-14T10:45:12.975Z,23.48
2023-05-14T10:46:13.936Z,23.33
2023-05-14T10:47:14.842Z,23.10
2023-05-14T10:48:15.716Z,22.92
2023-05-14T10:49:20.967Z,22.67
2023-05-14T10:50:18.645Z,22.27
2023-05-14T10:51:18.058Z,22.01
2023-05-14T10:52:18.910Z,21.74
2023-05-14T10:53:19.828Z,21.60
2023-05-14T10:54:20.678Z,21.55
2023-05-14T10:55:21.588Z,21.60
2023-05-14T10:56:22.470Z,21.65
2023-05-14T10:57:23.332Z,21.67
2023-05-14T10:58:24.205Z,21.66
2023-05-14T10:59:25.090Z,21.73
2023-05-14T11:00:26.209Z,21.81
2023-05-14T11:01:26.693Z,21.91
2023-05-14T11:02:27.585Z,21.94
2023-05-14T11:03:28.492Z,21.82
2023-05-14T11:04:29.360Z,22.01
2023-05-14T11:05:30.265Z,22.25
2023-05-14T11:06:31.155Z,22.74
2023-05-14T11:07:32.019Z,23.08
2023-05-14T11:08:32.888Z,23.28
2023-05-14T11:09:33.764Z,23.45
2023-05-14T11:10:34.680Z,23.44
2023-05-14T11:11:35.579Z,23.36
2023-05-14T11:12:36.463Z,23.31
2023-05-14T11:13:37.366Z,23.23
2023-05-14T11:14:38.237Z,23.18
2023-05-14T11:15:39.160Z,23.03
2023-05-14T11:16:40.064Z,22.88
2023-05-14T11:17:40.991Z,22.66
2023-05-14T11:18:42.038Z,22.53
2023-05-14T11:19:42.550Z,22.37
2023-05-14T11:20:43.452Z,22.16
2023-05-14T11:21:44.404Z,21.97
2023-05-14T11:22:45.258Z,21.94
2023-05-14T11:23:46.142Z,21.93
2023-05-14T11:24:47.026Z,21.90
2023-05-14T11:25:47.928Z,22.03
2023-05-14T11:26:48.799Z,22.18
2023-05-14T11:27:49.716Z,22.30
2023-05-14T11:28:50.560Z,22.43
2023-05-14T11:29:51.441Z,22.53
2023-05-14T11:30:52.338Z,22.55
2023-05-14T11:31:53.376Z,22.48
2023-05-14T11:32:53.835Z,22.71
2023-05-14T11:33:54.253Z,23.25
2023-05-14T11:34:55.127Z,23.76
2023-05-14T11:35:56.041Z,24.19
2023-05-14T11:36:56.904Z,24.59
2023-05-14T11:37:57.795Z,24.91
2023-05-14T11:38:58.707Z,25.09
2023-05-14T11:39:59.576Z,24.82
2023-05-14T11:41:00.499Z,24.40
2023-05-14T11:42:01.386Z,24.28
2023-05-14T11:43:02.269Z,24.10
2023-05-14T11:44:03.167Z,23.92
2023-05-14T11:45:04.092Z,23.76
2023-05-14T11:46:05.040Z,23.71
2023-05-14T11:47:05.873Z,23.73
2023-05-14T11:48:06.803Z,23.69
2023-05-14T11:49:07.642Z,23.69
2023-05-14T11:50:09.669Z,23.49
2023-05-14T11:51:09.315Z,23.45
2023-05-14T11:52:10.206Z,23.48
2023-05-14T11:53:11.060Z,23.44
2023-05-14T11:54:11.965Z,23.37
2023-05-14T11:55:12.875Z,23.15
2023-05-14T11:56:13.756Z,23.10
2023-05-14T11:57:14.638Z,23.14
2023-05-14T11:58:15.496Z,23.25
2023-05-14T11:59:16.406Z,23.31
2023-05-14T12:00:17.322Z,23.56
2023-05-14T12:01:18.839Z,23.88
2023-05-14T12:02:18.796Z,24.04
2023-05-14T12:03:19.843Z,24.44
2023-05-14T12:04:20.383Z,24.94
2023-05-14T12:05:21.269Z,25.36
2023-05-14T12:06:22.159Z,25.63
2023-05-14T12:07:23.032Z,25.70
2023-05-14T12:08:23.923Z,25.40
2023-05-14T12:09:24.847Z,25.08
2023-05-14T12:10:25.850Z,24.71
2023-05-14T12:11:26.741Z,24.63
2023-05-14T12:12:27.135Z,24.48
2023-05-14T12:13:28.006Z,24.11
2023-05-14T12:14:28.921Z,23.85
2023-05-14T12:15:29.833Z,23.84
2023-05-14T12:16:30.803Z,23.79
2023-05-14T12:17:31.665Z,23.67
2023-05-14T12:18:32.659Z,23.42
2023-05-14T12:19:33.180Z,23.10
2023-05-14T12:20:34.070Z,22.86
2023-05-14T12:21:35.006Z,22.78
2023-05-14T12:22:37.143Z,22.71
2023-05-14T12:23:36.573Z,22.71
2023-05-14T12:24:37.470Z,22.67
2023-05-14T12:25:38.360Z,22.66
2023-05-14T12:26:39.277Z,22.48
2023-05-14T12:27:40.177Z,22.40
2023-05-14T12:28:41.047Z,22.30
2023-05-14T12:29:41.928Z,22.18
2023-05-14T12:30:42.835Z,22.06
2023-05-14T12:31:43.788Z,22.06
2023-05-14T12:32:44.688Z,22.46
2023-05-14T12:33:45.607Z,22.81
2023-05-14T12:34:46.489Z,23.17
2023-05-14T12:35:47.389Z,23.31
2023-05-14T12:36:48.272Z,23.23
2023-05-14T12:37:49.165Z,23.11
2023-05-14T12:38:50.052Z,23.01
2023-05-14T12:39:50.921Z,22.93
2023-05-14T12:40:51.816Z,22.76
2023-05-14T12:41:52.712Z,22.56
2023-05-14T12:42:55.539Z,22.46
2023-05-14T12:43:54.563Z,22.53
2023-05-14T12:44:55.448Z,22.58
2023-05-14T12:45:56.330Z,22.58
2023-05-14T12:46:57.313Z,22.56
2023-05-14T12:47:58.170Z,22.59
2023-05-14T12:48:59.028Z,22.68
2023-05-14T12:49:59.911Z,22.78
2023-05-14T12:51:00.789Z,22.88
2023-05-14T12:52:17.420Z,23.01
2023-05-14T12:53:03.496Z,23.10
2023-05-14T12:54:03.359Z,23.17
2023-05-14T12:55:04.245Z,23.33
2023-05-14T12:56:05.118Z,23.66
2023-05-14T12:57:06.029Z,24.23
2023-05-14T12:58:06.895Z,24.84
2023-05-14T12:59:07.786Z,25.53
2023-05-14T13:00:08.789Z,25.36
2023-05-14T13:01:09.383Z,25.53
2023-05-14T13:02:09.784Z,25.36
2023-05-14T13:03:10.693Z,24.91
2023-05-14T13:04:11.551Z,24.78